Historyczne dane pomiarowe

Dodano dane terminowe – wersja testowa.

Dane z okresu 1951-2019

Wersja bazy: 1.34 [2019-03-16, lista zmian], aktualizacja planowana na 2019-04-15

Dane meteo z obszaru Polski uzyskane na podstawie danych udostępnionych przez Instytut Meteorologii i Gospodarki Wodnej – Państwowy Instytut Badawczy.

 

Wybierz Datę:    

       

TemperaturaWilgotnośćWiatrCiśnienieOpadyŚniegCzas trwania zjawisk
 Stacja t tx tn tng RH VA  wxwx mslp ppp RRR   cm mm wxwxwxwxwxwxwx
1994-08-14 14.7 19.1 11.0 11.0 60.8- 3.3 3.0---- 0.0------------
1994-08-13 16.6 22.0 14.5 14.4 84.0- 6.0 3.0---- 0.0------------
1994-08-12 16.1 20.1 14.3 13.1 90.8- 7.3 2.3---- 11.9------------
1994-08-11 18.3 22.0 16.6 11.4 87.3- 7.3 2.0---- 4.6------------
1994-08-10 19.3 26.8 11.6 11.4 74.8- 1.0 1.7---- 6.8------------
1994-08-09 18.2 23.8 16.7 15.3 91.5- 6.3 0.7---- 12.0------------
1994-08-08 22.1 27.3 17.7 17.5 82.8- 6.3 1.7---- 22.0------------
1994-08-07 24.8 31.4 16.0 15.4 67.8- 3.3 1.3---- 9.7------------
1994-08-06 25.4 33.4 14.9 12.5 55.3- 2.7 1.3---- 0.0------------
1994-08-05 24.0 30.9 15.5 14.4 66.5- 1.0 1.0---- 0.0------------
1994-08-04 21.9 28.4 14.0 13.9 74.0- 2.0 1.0---- 0.0------------
1994-08-03 23.2 31.1 19.6 18.7 72.8- 5.3 1.3---- 8.6------------
1994-08-02 25.0 33.1 17.9 15.7 64.0- 5.7 0.7---- 1.0------------
1994-08-01 28.2 36.2 16.5 14.9 49.0- 2.7 2.0---- 0.0------------
1994-07-31 27.4 35.5 19.1 15.6 47.5- 0.3 3.0---- 0.0------------
1994-07-30 25.8 34.5 14.9 13.1 50.8- 0.3 1.3---- 0.0------------
1994-07-29 25.8 33.7 14.5 12.8 48.5- 0.7 0.7---- 0.0------------
1994-07-28 25.2 33.0 13.6 11.8 48.5- 1.3 1.3---- 0.0------------
1994-07-27 23.0 33.2 14.9 11.4 61.8- 3.3 1.3---- 0.0------------
1994-07-26 24.1 32.6 13.5 11.7 55.3- 1.3 0.7---- 0.0------------
1994-07-25 23.1 31.5 12.7 10.7 53.5- 0.7 1.3---- 0.0------------
1994-07-24 23.1 30.2 14.3 12.4 50.5- 0.3 2.0---- 0.0------------
1994-07-23 22.8 29.1 15.5 12.1 52.5- 1.0 1.7---- 0.0------------
1994-07-22 21.2 28.8 10.4 9.3 52.8- 0.3 1.3---- 0.0------------
1994-07-21 20.6 27.3 11.5 9.6 55.5- 0.0 2.3---- 0.0------------
1994-07-20 18.9 24.3 12.0 10.5 55.8- 0.7 1.3---- 0.0------------
1994-07-19 19.6 24.3 13.9 13.4 70.3- 5.7 1.7---- 0.0------------
1994-07-18 21.2 26.9 14.2 14.1 76.3- 0.0 2.0---- 0.0------------
1994-07-17 20.5 29.5 15.9 16.1 81.0- 4.0 2.7---- 25.8------------
1994-07-16 21.5 30.6 15.0 14.0 72.0- 5.0 2.0---- 9.1------------
1994-07-15 22.8 28.3 16.3 14.8 63.0- 2.3 2.7---- 0.0------------
1994-07-14 22.2 30.0 13.0 12.1 60.0- 3.7 1.7---- 0.0------------
1994-07-13 21.8 27.9 13.9 12.0 55.5- 4.0 3.7---- 0.0------------
1994-07-12 20.7 26.6 14.3 13.3 70.8- 2.3 2.3---- 0.0------------
1994-07-11 19.0 25.7 11.3 10.7 69.8- 4.7 2.3---- 0.0------------
1994-07-10 16.8 22.9 11.6 11.5 74.5- 3.7 2.0---- 0.2------------
1994-07-09 14.1 16.3 12.3 12.5 82.8- 8.0 2.3---- 27.1------------
1994-07-08 15.4 18.9 12.7 12.7 78.3- 5.0 2.3---- 7.1------------
1994-07-07 18.7 27.9 10.8 8.7 61.5- 7.0 1.7---- 16.7------------
1994-07-06 17.9 26.0 9.1 6.6 56.8- 2.3 1.0---- 0.0------------
1994-07-05 20.2 27.5 14.0 11.8 63.8- 6.7 1.7---- 0.6------------
1994-07-04 22.9 31.3 11.2 8.3 48.3- 0.3 2.3---- 0.0------------
1994-07-03 21.4 28.1 10.6 7.0 45.5- 0.3 2.0---- 0.0------------
1994-07-02 20.3 26.6 10.7 7.8 54.8- 0.3 2.0---- 0.0------------
1994-07-01 18.8 24.9 12.0 8.9 55.8- 0.7 2.0---- 0.0------------
1994-06-30 21.9 29.1 19.1 16.2 75.8- 6.7 2.3---- 0.0------------
1994-06-29 26.5 33.5 19.4 16.1 57.0- 1.3 2.0---- 0.0------------
1994-06-28 25.9 31.5 19.4 15.7 63.0- 2.7 1.7---- 0.0------------
1994-06-27 26.1 33.2 17.1 14.1 63.5- 3.0 1.0---- 0.0------------
1994-06-26 22.9 30.6 12.0 7.1 48.8- 0.3 1.3---- 0.0------------
1994-06-25 16.4 25.4 3.4 1.8 47.3- 0.3 2.3---- 0.0------------
1994-06-24 14.9 21.2 3.7 1.1 47.3- 0.0 3.0---- 0.0------------
1994-06-23 18.1 22.9 15.9 12.5 51.3- 3.3 6.0---- 0.0------------
1994-06-22 18.2 26.6 8.4 6.4 62.8- 4.0 2.3---- 0.0------------
1994-06-21 16.1 21.8 5.9 3.3 57.3- 1.0 1.0---- 0.0------------
1994-06-20 15.1 22.9 9.8 7.7 72.3- 6.0 2.7---- 0.0------------
1994-06-19 18.4 25.6 11.9 11.0 66.8- 4.7 3.0---- 0.0------------
1994-06-18 10.7 19.2 2.7 0.8 75.3- 5.3 1.0---- 6.7------------
1994-06-17 11.5 16.2 8.5 6.8 60.8- 4.0 4.7---- 0.0------------
1994-06-16 9.7 16.0 4.4 1.9 79.5- 7.3 2.0---- 5.3------------
2115.6 ms

 

Źródłem pochodzenia danych jest Instytut Meteorologii i Gospodarki Wodnej – Państwowy Instytut Badawczy. Dane Instytutu Meteorologii i Gospodarki Wodnej – Państwowego Instytutu Badawczego zostały przetworzone.

Dane źródłowe można odnaleźć na stronie https://dane.imgw.pl